sensor_id;sensor_type;location;lat;lon;timestamp;P1;durP1;ratioP1;P2;durP2;ratioP2
58878;SDS011;44660;42.664;23.266;2022-12-18T00:01:14;8.50;;;4.60;;
58878;SDS011;44660;42.664;23.266;2022-12-18T00:03:56;6.90;;;4.40;;
58878;SDS011;44660;42.664;23.266;2022-12-18T00:06:25;6.63;;;4.47;;
58878;SDS011;44660;42.664;23.266;2022-12-18T00:08:52;7.57;;;4.82;;
58878;SDS011;44660;42.664;23.266;2022-12-18T00:11:19;10.15;;;5.32;;
58878;SDS011;44660;42.664;23.266;2022-12-18T00:13:46;9.63;;;5.63;;
58878;SDS011;44660;42.664;23.266;2022-12-18T00:16:14;10.02;;;6.30;;
58878;SDS011;44660;42.664;23.266;2022-12-18T00:18:41;8.47;;;5.63;;
58878;SDS011;44660;42.664;23.266;2022-12-18T00:21:08;9.95;;;5.28;;
58878;SDS011;44660;42.664;23.266;2022-12-18T00:23:35;8.70;;;5.47;;
58878;SDS011;44660;42.664;23.266;2022-12-18T00:26:02;11.40;;;5.18;;
58878;SDS011;44660;42.664;23.266;2022-12-18T00:28:32;10.90;;;5.80;;
58878;SDS011;44660;42.664;23.266;2022-12-18T00:31:04;13.48;;;6.20;;
58878;SDS011;44660;42.664;23.266;2022-12-18T00:33:31;12.02;;;6.13;;
58878;SDS011;44660;42.664;23.266;2022-12-18T00:36:01;10.23;;;5.65;;
58878;SDS011;44660;42.664;23.266;2022-12-18T00:38:27;14.68;;;6.68;;
58878;SDS011;44660;42.664;23.266;2022-12-18T00:40:53;10.02;;;5.45;;
58878;SDS011;44660;42.664;23.266;2022-12-18T00:43:18;7.38;;;4.65;;
58878;SDS011;44660;42.664;23.266;2022-12-18T00:45:44;7.13;;;4.57;;
58878;SDS011;44660;42.664;23.266;2022-12-18T00:48:10;6.65;;;4.63;;
58878;SDS011;44660;42.664;23.266;2022-12-18T00:50:35;6.78;;;4.50;;
58878;SDS011;44660;42.664;23.266;2022-12-18T00:53:01;6.65;;;4.90;;
58878;SDS011;44660;42.664;23.266;2022-12-18T00:55:26;5.85;;;4.13;;
58878;SDS011;44660;42.664;23.266;2022-12-18T00:57:52;6.57;;;4.45;;
58878;SDS011;44660;42.664;23.266;2022-12-18T01:00:18;7.25;;;4.63;;
58878;SDS011;44660;42.664;23.266;2022-12-18T01:02:43;6.35;;;4.72;;
58878;SDS011;44660;42.664;23.266;2022-12-18T01:05:10;5.80;;;4.30;;
58878;SDS011;44660;42.664;23.266;2022-12-18T01:07:39;7.85;;;4.95;;
58878;SDS011;44660;42.664;23.266;2022-12-18T01:10:06;6.90;;;4.88;;
58878;SDS011;44660;42.664;23.266;2022-12-18T01:12:33;6.00;;;4.40;;
58878;SDS011;44660;42.664;23.266;2022-12-18T01:14:58;7.70;;;5.15;;
58878;SDS011;44660;42.664;23.266;2022-12-18T01:17:24;7.78;;;5.05;;
58878;SDS011;44660;42.664;23.266;2022-12-18T01:19:50;6.78;;;4.82;;
58878;SDS011;44660;42.664;23.266;2022-12-18T01:22:15;7.68;;;5.20;;
58878;SDS011;44660;42.664;23.266;2022-12-18T01:24:41;7.47;;;5.07;;
58878;SDS011;44660;42.664;23.266;2022-12-18T01:27:06;7.57;;;5.13;;
58878;SDS011;44660;42.664;23.266;2022-12-18T01:29:32;7.28;;;4.75;;
58878;SDS011;44660;42.664;23.266;2022-12-18T01:31:57;8.30;;;5.53;;
58878;SDS011;44660;42.664;23.266;2022-12-18T01:34:23;9.40;;;6.00;;
58878;SDS011;44660;42.664;23.266;2022-12-18T01:36:49;7.72;;;5.60;;
58878;SDS011;44660;42.664;23.266;2022-12-18T01:39:17;9.57;;;6.13;;
58878;SDS011;44660;42.664;23.266;2022-12-18T01:41:43;10.23;;;6.35;;
58878;SDS011;44660;42.664;23.266;2022-12-18T01:47:15;11.00;;;6.47;;
58878;SDS011;44660;42.664;23.266;2022-12-18T01:49:46;8.93;;;6.28;;
58878;SDS011;44660;42.664;23.266;2022-12-18T01:52:11;12.23;;;6.90;;
58878;SDS011;44660;42.664;23.266;2022-12-18T01:54:37;10.88;;;6.88;;
58878;SDS011;44660;42.664;23.266;2022-12-18T01:57:02;10.77;;;6.20;;
58878;SDS011;44660;42.664;23.266;2022-12-18T01:59:28;9.10;;;6.50;;
58878;SDS011;44660;42.664;23.266;2022-12-18T02:01:57;10.05;;;6.40;;
58878;SDS011;44660;42.664;23.266;2022-12-18T02:04:25;10.02;;;6.35;;
58878;SDS011;44660;42.664;23.266;2022-12-18T02:06:56;10.50;;;7.22;;
58878;SDS011;44660;42.664;23.266;2022-12-18T02:09:31;10.38;;;7.00;;
58878;SDS011;44660;42.664;23.266;2022-12-18T02:12:21;9.73;;;5.90;;
58878;SDS011;44660;42.664;23.266;2022-12-18T02:14:52;9.43;;;6.43;;
58878;SDS011;44660;42.664;23.266;2022-12-18T02:17:36;9.73;;;6.18;;
58878;SDS011;44660;42.664;23.266;2022-12-18T02:28:22;11.45;;;7.20;;
58878;SDS011;44660;42.664;23.266;2022-12-18T02:30:51;11.15;;;6.50;;
58878;SDS011;44660;42.664;23.266;2022-12-18T02:33:19;10.38;;;6.00;;
58878;SDS011;44660;42.664;23.266;2022-12-18T02:35:46;10.85;;;6.65;;
58878;SDS011;44660;42.664;23.266;2022-12-18T02:38:14;10.75;;;6.30;;
58878;SDS011;44660;42.664;23.266;2022-12-18T02:40:41;9.48;;;5.85;;
58878;SDS011;44660;42.664;23.266;2022-12-18T02:43:09;8.23;;;5.15;;
58878;SDS011;44660;42.664;23.266;2022-12-18T02:45:45;6.70;;;4.78;;
58878;SDS011;44660;42.664;23.266;2022-12-18T02:48:12;6.47;;;4.68;;
58878;SDS011;44660;42.664;23.266;2022-12-18T02:50:38;7.00;;;4.97;;
58878;SDS011;44660;42.664;23.266;2022-12-18T02:53:14;8.18;;;5.40;;
58878;SDS011;44660;42.664;23.266;2022-12-18T03:01:00;7.82;;;4.95;;
58878;SDS011;44660;42.664;23.266;2022-12-18T03:03:33;7.93;;;5.20;;
58878;SDS011;44660;42.664;23.266;2022-12-18T03:06:08;7.82;;;4.72;;
58878;SDS011;44660;42.664;23.266;2022-12-18T03:08:41;7.50;;;5.35;;
58878;SDS011;44660;42.664;23.266;2022-12-18T03:13:50;8.10;;;4.80;;
58878;SDS011;44660;42.664;23.266;2022-12-18T03:16:24;6.30;;;4.40;;
58878;SDS011;44660;42.664;23.266;2022-12-18T03:18:55;7.57;;;4.43;;
58878;SDS011;44660;42.664;23.266;2022-12-18T03:21:27;7.47;;;4.82;;
58878;SDS011;44660;42.664;23.266;2022-12-18T03:23:57;7.32;;;4.72;;
58878;SDS011;44660;42.664;23.266;2022-12-18T03:26:24;6.40;;;4.28;;
58878;SDS011;44660;42.664;23.266;2022-12-18T03:28:53;9.65;;;4.22;;
58878;SDS011;44660;42.664;23.266;2022-12-18T03:31:23;8.82;;;5.03;;
58878;SDS011;44660;42.664;23.266;2022-12-18T03:33:54;7.72;;;4.75;;
58878;SDS011;44660;42.664;23.266;2022-12-18T03:36:22;8.13;;;4.80;;
58878;SDS011;44660;42.664;23.266;2022-12-18T03:38:48;6.82;;;4.55;;
58878;SDS011;44660;42.664;23.266;2022-12-18T03:46:41;9.15;;;4.72;;
58878;SDS011;44660;42.664;23.266;2022-12-18T03:49:23;8.15;;;5.07;;
58878;SDS011;44660;42.664;23.266;2022-12-18T03:52:01;9.18;;;5.00;;
58878;SDS011;44660;42.664;23.266;2022-12-18T03:54:30;6.25;;;4.10;;
58878;SDS011;44660;42.664;23.266;2022-12-18T03:57:01;7.78;;;4.43;;
58878;SDS011;44660;42.664;23.266;2022-12-18T03:59:31;7.55;;;4.80;;
58878;SDS011;44660;42.664;23.266;2022-12-18T04:01:58;6.68;;;4.65;;
58878;SDS011;44660;42.664;23.266;2022-12-18T04:04:26;6.75;;;3.97;;
58878;SDS011;44660;42.664;23.266;2022-12-18T04:06:53;7.10;;;4.90;;
58878;SDS011;44660;42.664;23.266;2022-12-18T04:09:20;7.75;;;4.93;;
58878;SDS011;44660;42.664;23.266;2022-12-18T04:11:46;7.47;;;4.35;;
58878;SDS011;44660;42.664;23.266;2022-12-18T04:14:12;6.30;;;4.55;;
58878;SDS011;44660;42.664;23.266;2022-12-18T04:16:38;9.38;;;4.80;;
58878;SDS011;44660;42.664;23.266;2022-12-18T04:19:03;7.00;;;4.90;;
58878;SDS011;44660;42.664;23.266;2022-12-18T04:21:29;6.57;;;4.38;;
58878;SDS011;44660;42.664;23.266;2022-12-18T04:23:54;7.55;;;4.60;;
58878;SDS011;44660;42.664;23.266;2022-12-18T04:26:20;6.97;;;4.72;;
58878;SDS011;44660;42.664;23.266;2022-12-18T04:28:46;8.13;;;4.93;;
58878;SDS011;44660;42.664;23.266;2022-12-18T04:31:11;7.13;;;5.03;;
58878;SDS011;44660;42.664;23.266;2022-12-18T04:33:37;6.90;;;4.35;;
58878;SDS011;44660;42.664;23.266;2022-12-18T04:36:02;8.18;;;5.20;;
58878;SDS011;44660;42.664;23.266;2022-12-18T04:38:28;8.55;;;5.35;;
58878;SDS011;44660;42.664;23.266;2022-12-18T04:40:54;8.35;;;5.38;;
58878;SDS011;44660;42.664;23.266;2022-12-18T04:43:19;9.60;;;6.05;;
58878;SDS011;44660;42.664;23.266;2022-12-18T04:45:45;11.05;;;5.63;;
58878;SDS011;44660;42.664;23.266;2022-12-18T04:48:10;8.55;;;5.25;;
58878;SDS011;44660;42.664;23.266;2022-12-18T04:50:37;9.45;;;5.53;;
58878;SDS011;44660;42.664;23.266;2022-12-18T04:53:02;7.70;;;4.95;;
58878;SDS011;44660;42.664;23.266;2022-12-18T04:55:27;9.52;;;5.30;;
58878;SDS011;44660;42.664;23.266;2022-12-18T04:57:53;10.50;;;5.50;;
58878;SDS011;44660;42.664;23.266;2022-12-18T05:00:19;9.15;;;5.60;;
58878;SDS011;44660;42.664;23.266;2022-12-18T05:02:45;10.98;;;6.03;;
58878;SDS011;44660;42.664;23.266;2022-12-18T05:05:10;9.63;;;5.65;;
58878;SDS011;44660;42.664;23.266;2022-12-18T05:07:36;12.40;;;5.90;;
58878;SDS011;44660;42.664;23.266;2022-12-18T05:10:01;10.90;;;6.15;;
58878;SDS011;44660;42.664;23.266;2022-12-18T05:12:27;9.05;;;6.13;;
58878;SDS011;44660;42.664;23.266;2022-12-18T05:14:52;11.48;;;6.63;;
58878;SDS011;44660;42.664;23.266;2022-12-18T05:17:18;10.45;;;6.13;;
58878;SDS011;44660;42.664;23.266;2022-12-18T05:19:43;10.20;;;6.25;;
58878;SDS011;44660;42.664;23.266;2022-12-18T05:22:09;8.48;;;5.65;;
58878;SDS011;44660;42.664;23.266;2022-12-18T05:24:36;10.75;;;6.32;;
58878;SDS011;44660;42.664;23.266;2022-12-18T05:27:02;10.93;;;5.88;;
58878;SDS011;44660;42.664;23.266;2022-12-18T05:29:27;9.20;;;6.10;;
58878;SDS011;44660;42.664;23.266;2022-12-18T05:31:53;10.20;;;7.00;;
58878;SDS011;44660;42.664;23.266;2022-12-18T05:34:18;10.93;;;6.55;;
58878;SDS011;44660;42.664;23.266;2022-12-18T05:36:44;10.35;;;6.05;;
58878;SDS011;44660;42.664;23.266;2022-12-18T05:39:09;8.93;;;5.63;;
58878;SDS011;44660;42.664;23.266;2022-12-18T05:41:35;9.52;;;6.43;;
58878;SDS011;44660;42.664;23.266;2022-12-18T05:44:00;24.85;;;13.48;;
58878;SDS011;44660;42.664;23.266;2022-12-18T05:46:26;45.97;;;25.75;;
58878;SDS011;44660;42.664;23.266;2022-12-18T05:48:51;21.75;;;13.38;;
58878;SDS011;44660;42.664;23.266;2022-12-18T05:51:18;22.52;;;13.20;;
58878;SDS011;44660;42.664;23.266;2022-12-18T05:53:45;23.15;;;13.57;;
58878;SDS011;44660;42.664;23.266;2022-12-18T05:56:12;31.08;;;16.42;;
58878;SDS011;44660;42.664;23.266;2022-12-18T05:58:40;27.92;;;14.00;;
58878;SDS011;44660;42.664;23.266;2022-12-18T06:01:11;19.08;;;11.02;;
58878;SDS011;44660;42.664;23.266;2022-12-18T06:03:38;15.10;;;9.10;;
58878;SDS011;44660;42.664;23.266;2022-12-18T06:06:04;13.23;;;8.52;;
58878;SDS011;44660;42.664;23.266;2022-12-18T06:08:37;13.13;;;7.75;;
58878;SDS011;44660;42.664;23.266;2022-12-18T06:11:02;13.93;;;8.02;;
58878;SDS011;44660;42.664;23.266;2022-12-18T06:13:28;13.93;;;7.90;;
58878;SDS011;44660;42.664;23.266;2022-12-18T06:15:54;12.77;;;7.50;;
58878;SDS011;44660;42.664;23.266;2022-12-18T06:18:19;14.30;;;7.97;;
58878;SDS011;44660;42.664;23.266;2022-12-18T06:20:45;25.83;;;12.98;;
58878;SDS011;44660;42.664;23.266;2022-12-18T06:23:10;14.25;;;8.60;;
58878;SDS011;44660;42.664;23.266;2022-12-18T06:25:37;16.10;;;8.43;;
58878;SDS011;44660;42.664;23.266;2022-12-18T06:28:04;17.27;;;8.95;;
58878;SDS011;44660;42.664;23.266;2022-12-18T06:30:29;14.45;;;8.20;;
58878;SDS011;44660;42.664;23.266;2022-12-18T06:32:55;14.75;;;8.40;;
58878;SDS011;44660;42.664;23.266;2022-12-18T06:35:21;17.50;;;10.00;;
58878;SDS011;44660;42.664;23.266;2022-12-18T06:37:47;18.45;;;9.10;;
58878;SDS011;44660;42.664;23.266;2022-12-18T06:40:13;15.85;;;8.88;;
58878;SDS011;44660;42.664;23.266;2022-12-18T06:42:38;17.48;;;9.55;;
58878;SDS011;44660;42.664;23.266;2022-12-18T06:45:03;16.67;;;9.13;;
58878;SDS011;44660;42.664;23.266;2022-12-18T06:47:29;16.02;;;8.65;;
58878;SDS011;44660;42.664;23.266;2022-12-18T06:49:55;14.48;;;7.63;;
58878;SDS011;44660;42.664;23.266;2022-12-18T06:52:20;14.80;;;8.45;;
58878;SDS011;44660;42.664;23.266;2022-12-18T06:54:45;16.15;;;8.50;;
58878;SDS011;44660;42.664;23.266;2022-12-18T06:57:11;14.07;;;8.50;;
58878;SDS011;44660;42.664;23.266;2022-12-18T06:59:36;15.93;;;8.82;;
58878;SDS011;44660;42.664;23.266;2022-12-18T07:02:02;15.20;;;8.68;;
58878;SDS011;44660;42.664;23.266;2022-12-18T07:04:30;13.85;;;8.43;;
58878;SDS011;44660;42.664;23.266;2022-12-18T07:06:56;14.87;;;9.03;;
58878;SDS011;44660;42.664;23.266;2022-12-18T07:09:22;13.93;;;8.75;;
58878;SDS011;44660;42.664;23.266;2022-12-18T07:11:48;16.40;;;9.13;;
58878;SDS011;44660;42.664;23.266;2022-12-18T07:14:14;18.42;;;9.98;;
58878;SDS011;44660;42.664;23.266;2022-12-18T07:16:39;17.17;;;9.38;;
58878;SDS011;44660;42.664;23.266;2022-12-18T07:19:05;20.02;;;10.18;;
58878;SDS011;44660;42.664;23.266;2022-12-18T07:21:31;17.77;;;8.93;;
58878;SDS011;44660;42.664;23.266;2022-12-18T07:23:56;18.45;;;9.60;;
58878;SDS011;44660;42.664;23.266;2022-12-18T07:26:22;19.02;;;9.82;;
58878;SDS011;44660;42.664;23.266;2022-12-18T07:28:48;18.15;;;10.23;;
58878;SDS011;44660;42.664;23.266;2022-12-18T07:31:15;16.25;;;9.32;;
58878;SDS011;44660;42.664;23.266;2022-12-18T07:33:43;20.30;;;10.00;;
58878;SDS011;44660;42.664;23.266;2022-12-18T07:36:10;16.27;;;8.82;;
58878;SDS011;44660;42.664;23.266;2022-12-18T07:38:36;16.73;;;9.13;;
58878;SDS011;44660;42.664;23.266;2022-12-18T07:43:28;19.23;;;10.52;;
58878;SDS011;44660;42.664;23.266;2022-12-18T07:45:54;17.63;;;9.65;;
58878;SDS011;44660;42.664;23.266;2022-12-18T07:48:19;19.13;;;10.10;;
58878;SDS011;44660;42.664;23.266;2022-12-18T07:50:45;17.42;;;10.43;;
58878;SDS011;44660;42.664;23.266;2022-12-18T07:53:10;16.55;;;9.82;;
58878;SDS011;44660;42.664;23.266;2022-12-18T07:55:35;44.15;;;22.30;;
58878;SDS011;44660;42.664;23.266;2022-12-18T07:58:02;32.88;;;17.17;;
58878;SDS011;44660;42.664;23.266;2022-12-18T08:00:29;37.20;;;19.15;;
58878;SDS011;44660;42.664;23.266;2022-12-18T08:02:55;33.78;;;18.33;;
58878;SDS011;44660;42.664;23.266;2022-12-18T08:05:20;27.85;;;13.98;;
58878;SDS011;44660;42.664;23.266;2022-12-18T08:07:46;22.23;;;12.43;;
58878;SDS011;44660;42.664;23.266;2022-12-18T08:10:12;22.70;;;12.38;;
58878;SDS011;44660;42.664;23.266;2022-12-18T08:12:37;20.45;;;11.60;;
58878;SDS011;44660;42.664;23.266;2022-12-18T08:15:03;21.83;;;12.93;;
58878;SDS011;44660;42.664;23.266;2022-12-18T08:17:29;21.58;;;11.80;;
58878;SDS011;44660;42.664;23.266;2022-12-18T08:19:55;23.38;;;12.65;;
58878;SDS011;44660;42.664;23.266;2022-12-18T08:22:20;22.20;;;12.45;;
58878;SDS011;44660;42.664;23.266;2022-12-18T08:24:46;20.35;;;11.85;;
58878;SDS011;44660;42.664;23.266;2022-12-18T08:27:11;23.40;;;12.60;;
58878;SDS011;44660;42.664;23.266;2022-12-18T08:29:37;25.67;;;13.88;;
58878;SDS011;44660;42.664;23.266;2022-12-18T08:32:03;25.05;;;13.45;;
58878;SDS011;44660;42.664;23.266;2022-12-18T08:34:28;28.92;;;15.48;;
58878;SDS011;44660;42.664;23.266;2022-12-18T08:36:54;26.10;;;14.40;;
58878;SDS011;44660;42.664;23.266;2022-12-18T08:39:19;26.40;;;13.98;;
58878;SDS011;44660;42.664;23.266;2022-12-18T08:41:45;26.02;;;14.55;;
58878;SDS011;44660;42.664;23.266;2022-12-18T08:44:30;26.10;;;13.90;;
58878;SDS011;44660;42.664;23.266;2022-12-18T08:47:06;28.80;;;14.73;;
58878;SDS011;44660;42.664;23.266;2022-12-18T08:49:32;29.92;;;16.80;;
58878;SDS011;44660;42.664;23.266;2022-12-18T08:51:58;32.95;;;16.17;;
58878;SDS011;44660;42.664;23.266;2022-12-18T08:54:24;34.13;;;18.02;;
58878;SDS011;44660;42.664;23.266;2022-12-18T08:56:50;33.17;;;16.40;;
58878;SDS011;44660;42.664;23.266;2022-12-18T08:59:16;31.30;;;16.27;;
58878;SDS011;44660;42.664;23.266;2022-12-18T09:01:42;24.90;;;15.20;;
58878;SDS011;44660;42.664;23.266;2022-12-18T09:04:08;31.70;;;16.95;;
58878;SDS011;44660;42.664;23.266;2022-12-18T09:06:36;30.57;;;15.30;;
58878;SDS011;44660;42.664;23.266;2022-12-18T09:09:02;27.33;;;15.35;;
58878;SDS011;44660;42.664;23.266;2022-12-18T09:11:29;27.45;;;14.75;;
58878;SDS011;44660;42.664;23.266;2022-12-18T09:13:57;56.80;;;30.08;;
58878;SDS011;44660;42.664;23.266;2022-12-18T09:16:23;53.22;;;27.02;;
58878;SDS011;44660;42.664;23.266;2022-12-18T09:18:49;31.42;;;16.40;;
58878;SDS011;44660;42.664;23.266;2022-12-18T09:21:17;28.80;;;14.88;;
58878;SDS011;44660;42.664;23.266;2022-12-18T09:23:48;30.80;;;16.03;;
58878;SDS011;44660;42.664;23.266;2022-12-18T09:26:18;36.28;;;18.45;;
58878;SDS011;44660;42.664;23.266;2022-12-18T09:28:44;32.20;;;16.55;;
58878;SDS011;44660;42.664;23.266;2022-12-18T09:31:11;26.00;;;13.30;;
58878;SDS011;44660;42.664;23.266;2022-12-18T09:33:37;26.45;;;14.20;;
58878;SDS011;44660;42.664;23.266;2022-12-18T09:36:03;26.13;;;14.45;;
58878;SDS011;44660;42.664;23.266;2022-12-18T09:38:31;25.00;;;14.25;;
58878;SDS011;44660;42.664;23.266;2022-12-18T09:40:59;28.60;;;14.25;;
58878;SDS011;44660;42.664;23.266;2022-12-18T09:43:30;25.30;;;13.55;;
58878;SDS011;44660;42.664;23.266;2022-12-18T09:46:03;29.52;;;14.32;;
58878;SDS011;44660;42.664;23.266;2022-12-18T09:48:36;28.55;;;13.63;;
58878;SDS011;44660;42.664;23.266;2022-12-18T09:51:18;29.20;;;14.13;;
58878;SDS011;44660;42.664;23.266;2022-12-18T09:53:50;27.48;;;14.93;;
58878;SDS011;44660;42.664;23.266;2022-12-18T09:56:20;26.80;;;13.70;;
58878;SDS011;44660;42.664;23.266;2022-12-18T09:58:58;26.23;;;13.93;;
58878;SDS011;44660;42.664;23.266;2022-12-18T10:01:26;28.17;;;14.77;;
58878;SDS011;44660;42.664;23.266;2022-12-18T10:03:53;31.42;;;14.93;;
58878;SDS011;44660;42.664;23.266;2022-12-18T10:11:48;26.08;;;13.65;;
58878;SDS011;44660;42.664;23.266;2022-12-18T10:14:23;29.38;;;13.50;;
58878;SDS011;44660;42.664;23.266;2022-12-18T10:20:11;36.15;;;19.65;;
58878;SDS011;44660;42.664;23.266;2022-12-18T10:25:15;39.40;;;22.23;;
58878;SDS011;44660;42.664;23.266;2022-12-18T10:27:46;29.10;;;15.55;;
58878;SDS011;44660;42.664;23.266;2022-12-18T10:30:14;22.25;;;12.13;;
58878;SDS011;44660;42.664;23.266;2022-12-18T10:32:45;23.80;;;12.82;;
58878;SDS011;44660;42.664;23.266;2022-12-18T10:35:16;23.92;;;12.48;;
58878;SDS011;44660;42.664;23.266;2022-12-18T10:40:51;23.85;;;12.15;;
58878;SDS011;44660;42.664;23.266;2022-12-18T10:43:20;24.02;;;11.93;;
58878;SDS011;44660;42.664;23.266;2022-12-18T10:46:31;22.88;;;12.40;;
58878;SDS011;44660;42.664;23.266;2022-12-18T10:51:28;20.20;;;10.68;;
58878;SDS011;44660;42.664;23.266;2022-12-18T10:54:02;21.77;;;11.57;;
58878;SDS011;44660;42.664;23.266;2022-12-18T10:56:29;23.42;;;11.73;;
58878;SDS011;44660;42.664;23.266;2022-12-18T11:01:31;25.77;;;10.80;;
58878;SDS011;44660;42.664;23.266;2022-12-18T11:04:13;21.55;;;11.02;;
58878;SDS011;44660;42.664;23.266;2022-12-18T11:07:05;23.13;;;11.73;;
58878;SDS011;44660;42.664;23.266;2022-12-18T11:09:33;21.60;;;10.73;;
58878;SDS011;44660;42.664;23.266;2022-12-18T11:14:50;21.45;;;11.77;;
58878;SDS011;44660;42.664;23.266;2022-12-18T11:17:20;21.23;;;10.63;;
58878;SDS011;44660;42.664;23.266;2022-12-18T11:19:51;19.48;;;9.98;;
58878;SDS011;44660;42.664;23.266;2022-12-18T11:22:26;22.50;;;11.65;;
58878;SDS011;44660;42.664;23.266;2022-12-18T11:24:57;21.35;;;11.07;;
58878;SDS011;44660;42.664;23.266;2022-12-18T11:27:31;17.65;;;9.75;;
58878;SDS011;44660;42.664;23.266;2022-12-18T11:30:08;24.95;;;10.63;;
58878;SDS011;44660;42.664;23.266;2022-12-18T11:32:45;19.40;;;10.25;;
58878;SDS011;44660;42.664;23.266;2022-12-18T11:37:50;20.48;;;10.23;;
58878;SDS011;44660;42.664;23.266;2022-12-18T11:40:25;18.98;;;9.55;;
58878;SDS011;44660;42.664;23.266;2022-12-18T11:43:03;23.30;;;11.38;;
58878;SDS011;44660;42.664;23.266;2022-12-18T11:45:35;20.90;;;10.55;;
58878;SDS011;44660;42.664;23.266;2022-12-18T11:51:14;18.95;;;9.35;;
58878;SDS011;44660;42.664;23.266;2022-12-18T11:53:48;19.17;;;10.10;;
58878;SDS011;44660;42.664;23.266;2022-12-18T12:17:40;21.85;;;11.30;;
58878;SDS011;44660;42.664;23.266;2022-12-18T12:23:13;20.60;;;11.65;;
58878;SDS011;44660;42.664;23.266;2022-12-18T12:25:59;21.83;;;11.50;;
58878;SDS011;44660;42.664;23.266;2022-12-18T12:31:22;21.15;;;11.13;;
58878;SDS011;44660;42.664;23.266;2022-12-18T12:33:54;21.20;;;11.57;;
58878;SDS011;44660;42.664;23.266;2022-12-18T12:39:34;27.00;;;12.65;;
58878;SDS011;44660;42.664;23.266;2022-12-18T12:42:08;25.27;;;12.05;;
58878;SDS011;44660;42.664;23.266;2022-12-18T12:45:25;24.50;;;12.32;;
58878;SDS011;44660;42.664;23.266;2022-12-18T12:47:55;25.02;;;11.48;;
58878;SDS011;44660;42.664;23.266;2022-12-18T12:50:23;25.73;;;13.30;;
58878;SDS011;44660;42.664;23.266;2022-12-18T12:52:51;28.00;;;13.38;;
58878;SDS011;44660;42.664;23.266;2022-12-18T12:55:23;26.15;;;12.15;;
58878;SDS011;44660;42.664;23.266;2022-12-18T12:57:54;22.30;;;11.70;;
58878;SDS011;44660;42.664;23.266;2022-12-18T13:00:30;26.38;;;13.27;;
58878;SDS011;44660;42.664;23.266;2022-12-18T13:03:04;25.25;;;13.07;;
58878;SDS011;44660;42.664;23.266;2022-12-18T13:11:40;28.50;;;14.90;;
58878;SDS011;44660;42.664;23.266;2022-12-18T13:14:33;23.20;;;12.90;;
58878;SDS011;44660;42.664;23.266;2022-12-18T13:22:39;30.52;;;14.80;;
58878;SDS011;44660;42.664;23.266;2022-12-18T13:25:34;23.27;;;12.80;;
58878;SDS011;44660;42.664;23.266;2022-12-18T13:30:41;23.50;;;11.85;;
58878;SDS011;44660;42.664;23.266;2022-12-18T13:35:40;21.75;;;11.13;;
58878;SDS011;44660;42.664;23.266;2022-12-18T13:38:55;26.10;;;13.02;;
58878;SDS011;44660;42.664;23.266;2022-12-18T13:43:49;24.23;;;13.20;;
58878;SDS011;44660;42.664;23.266;2022-12-18T13:46:18;24.75;;;12.07;;
58878;SDS011;44660;42.664;23.266;2022-12-18T13:48:54;25.17;;;13.20;;
58878;SDS011;44660;42.664;23.266;2022-12-18T13:51:31;25.60;;;13.45;;
58878;SDS011;44660;42.664;23.266;2022-12-18T13:53:59;29.45;;;15.45;;
58878;SDS011;44660;42.664;23.266;2022-12-18T13:56:29;41.50;;;20.00;;
58878;SDS011;44660;42.664;23.266;2022-12-18T13:59:03;47.70;;;22.30;;
58878;SDS011;44660;42.664;23.266;2022-12-18T14:01:30;48.20;;;21.50;;
58878;SDS011;44660;42.664;23.266;2022-12-18T14:04:12;40.25;;;19.38;;
58878;SDS011;44660;42.664;23.266;2022-12-18T14:06:45;28.73;;;16.98;;
58878;SDS011;44660;42.664;23.266;2022-12-18T14:09:15;26.05;;;14.10;;
58878;SDS011;44660;42.664;23.266;2022-12-18T14:11:48;26.42;;;14.45;;
58878;SDS011;44660;42.664;23.266;2022-12-18T14:14:16;28.13;;;14.98;;
58878;SDS011;44660;42.664;23.266;2022-12-18T14:16:42;29.95;;;16.40;;
58878;SDS011;44660;42.664;23.266;2022-12-18T14:19:12;26.50;;;14.75;;
58878;SDS011;44660;42.664;23.266;2022-12-18T14:21:45;23.10;;;13.32;;
58878;SDS011;44660;42.664;23.266;2022-12-18T14:24:17;21.63;;;10.25;;
58878;SDS011;44660;42.664;23.266;2022-12-18T14:26:45;19.98;;;10.90;;
58878;SDS011;44660;42.664;23.266;2022-12-18T14:29:28;22.63;;;11.85;;
58878;SDS011;44660;42.664;23.266;2022-12-18T14:34:32;22.08;;;11.07;;
58878;SDS011;44660;42.664;23.266;2022-12-18T14:36:58;20.73;;;10.80;;
58878;SDS011;44660;42.664;23.266;2022-12-18T14:39:24;22.70;;;11.82;;
58878;SDS011;44660;42.664;23.266;2022-12-18T14:41:50;24.45;;;12.98;;
58878;SDS011;44660;42.664;23.266;2022-12-18T14:44:16;25.35;;;13.90;;
58878;SDS011;44660;42.664;23.266;2022-12-18T14:46:43;29.55;;;15.27;;
58878;SDS011;44660;42.664;23.266;2022-12-18T14:49:24;28.25;;;14.90;;
58878;SDS011;44660;42.664;23.266;2022-12-18T14:51:55;28.30;;;14.25;;
58878;SDS011;44660;42.664;23.266;2022-12-18T14:54:25;31.88;;;15.05;;
58878;SDS011;44660;42.664;23.266;2022-12-18T14:56:59;25.45;;;13.38;;
58878;SDS011;44660;42.664;23.266;2022-12-18T14:59:28;29.73;;;13.40;;
58878;SDS011;44660;42.664;23.266;2022-12-18T15:04:25;22.63;;;12.60;;
58878;SDS011;44660;42.664;23.266;2022-12-18T15:07:02;25.60;;;12.02;;
58878;SDS011;44660;42.664;23.266;2022-12-18T15:12:33;49.58;;;26.50;;
58878;SDS011;44660;42.664;23.266;2022-12-18T15:15:00;39.40;;;20.48;;
58878;SDS011;44660;42.664;23.266;2022-12-18T15:17:26;29.17;;;15.07;;
58878;SDS011;44660;42.664;23.266;2022-12-18T15:19:53;37.42;;;19.20;;
58878;SDS011;44660;42.664;23.266;2022-12-18T15:24:52;27.70;;;12.98;;
58878;SDS011;44660;42.664;23.266;2022-12-18T15:27:26;25.13;;;13.80;;
58878;SDS011;44660;42.664;23.266;2022-12-18T15:32:26;27.33;;;12.80;;
58878;SDS011;44660;42.664;23.266;2022-12-18T15:35:01;22.77;;;11.85;;
58878;SDS011;44660;42.664;23.266;2022-12-18T15:37:36;28.50;;;12.85;;
58878;SDS011;44660;42.664;23.266;2022-12-18T15:40:03;23.67;;;12.73;;
58878;SDS011;44660;42.664;23.266;2022-12-18T15:42:29;25.00;;;12.48;;
58878;SDS011;44660;42.664;23.266;2022-12-18T15:45:13;25.73;;;11.77;;
58878;SDS011;44660;42.664;23.266;2022-12-18T15:47:39;27.00;;;13.13;;
58878;SDS011;44660;42.664;23.266;2022-12-18T15:50:07;25.25;;;12.07;;
58878;SDS011;44660;42.664;23.266;2022-12-18T15:52:35;47.70;;;22.63;;
58878;SDS011;44660;42.664;23.266;2022-12-18T15:55:10;125.45;;;58.65;;
58878;SDS011;44660;42.664;23.266;2022-12-18T15:57:56;43.30;;;21.98;;
58878;SDS011;44660;42.664;23.266;2022-12-18T16:00:22;27.52;;;13.70;;
58878;SDS011;44660;42.664;23.266;2022-12-18T16:02:47;23.17;;;12.40;;
58878;SDS011;44660;42.664;23.266;2022-12-18T16:05:16;26.83;;;12.90;;
58878;SDS011;44660;42.664;23.266;2022-12-18T16:07:43;24.60;;;12.40;;
58878;SDS011;44660;42.664;23.266;2022-12-18T16:10:09;29.88;;;14.40;;
58878;SDS011;44660;42.664;23.266;2022-12-18T16:12:35;34.60;;;15.65;;
58878;SDS011;44660;42.664;23.266;2022-12-18T16:15:01;76.60;;;35.45;;
58878;SDS011;44660;42.664;23.266;2022-12-18T16:17:27;43.67;;;20.73;;
58878;SDS011;44660;42.664;23.266;2022-12-18T16:19:52;35.80;;;17.83;;
58878;SDS011;44660;42.664;23.266;2022-12-18T16:22:25;22.25;;;11.48;;
58878;SDS011;44660;42.664;23.266;2022-12-18T16:24:53;24.05;;;11.85;;
58878;SDS011;44660;42.664;23.266;2022-12-18T16:27:19;18.98;;;10.60;;